Terminal Aerodrome Forecast
Issued by NWS

Home | Current Version | Previous Version | Text Only | Print | Product List | Glossary On
Versions: 1 2 3 4 5 6 7 8 9 10 11 12 13 14 15 16
000
FTUS45 KABQ 210534
TAFGUP
TAF
KGUP 210534Z 2106/2206 10011KT P6SM VCSH OVC070
     FM210900 08006KT P6SM BKN090
     FM211900 30008KT P6SM VCSH SCT060 BKN090
     FM220200 VRB06KT P6SM VCSH SCT060 BKN090=

USA.gov is the U.S. government's official web portal to all federal, state and local government web resources and services.